createdAt,value
2018-09-26T00:00:38.650Z,2.98
2018-09-26T00:03:24.345Z,3.95
2018-09-26T00:05:51.692Z,3.35
2018-09-26T00:08:18.998Z,3.60
2018-09-26T00:10:46.696Z,4.53
2018-09-26T00:13:14.177Z,4.92
2018-09-26T00:15:41.452Z,4.70
2018-09-26T00:18:08.756Z,6.58
2018-09-26T00:20:36.057Z,5.15
2018-09-26T00:23:03.409Z,3.50
2018-09-26T00:25:30.723Z,2.85
2018-09-26T00:27:58.069Z,2.87
2018-09-26T00:30:25.368Z,3.40
2018-09-26T00:32:52.680Z,3.00
2018-09-26T00:35:20.015Z,3.27
2018-09-26T00:37:47.373Z,3.15
2018-09-26T00:40:14.679Z,4.08
2018-09-26T00:42:41.985Z,3.40
2018-09-26T00:45:09.305Z,3.50
2018-09-26T00:47:36.614Z,3.83
2018-09-26T00:50:03.933Z,4.10
2018-09-26T00:52:31.220Z,2.85
2018-09-26T00:54:58.517Z,2.98
2018-09-26T00:57:25.827Z,2.75
2018-09-26T00:59:53.128Z,3.20
2018-09-26T01:02:20.475Z,2.80
2018-09-26T01:04:47.864Z,3.08
2018-09-26T01:07:15.184Z,2.62
2018-09-26T01:09:42.493Z,3.10
2018-09-26T01:12:09.801Z,3.15
2018-09-26T01:14:37.137Z,2.98
2018-09-26T01:17:04.420Z,3.25
2018-09-26T01:19:31.724Z,3.10
2018-09-26T01:21:59.036Z,3.05
2018-09-26T01:24:26.313Z,3.10
2018-09-26T01:26:53.633Z,2.77
2018-09-26T01:29:20.962Z,3.37
2018-09-26T01:31:48.281Z,3.45
2018-09-26T01:34:15.593Z,2.95
2018-09-26T01:36:42.932Z,3.35
2018-09-26T01:39:10.627Z,2.75
2018-09-26T01:41:37.998Z,3.27
2018-09-26T01:44:05.328Z,3.25
2018-09-26T01:46:32.662Z,2.75
2018-09-26T01:48:59.961Z,3.12
2018-09-26T01:51:27.286Z,2.42
2018-09-26T01:53:54.587Z,2.95
2018-09-26T01:56:21.882Z,2.95
2018-09-26T01:58:49.173Z,2.75
2018-09-26T02:01:16.481Z,3.50
2018-09-26T02:03:43.744Z,2.90
2018-09-26T02:06:11.020Z,3.40
2018-09-26T02:08:38.314Z,2.98
2018-09-26T02:11:05.629Z,3.37
2018-09-26T02:13:32.954Z,3.05
2018-09-26T02:16:00.213Z,2.70
2018-09-26T02:18:27.485Z,3.67
2018-09-26T02:20:54.761Z,3.35
2018-09-26T02:23:22.061Z,3.15
2018-09-26T02:25:49.337Z,3.15
2018-09-26T02:28:16.618Z,2.85
2018-09-26T02:30:43.892Z,2.65
2018-09-26T02:33:11.304Z,3.20
2018-09-26T02:35:38.553Z,3.47
2018-09-26T02:38:05.860Z,3.35
2018-09-26T02:40:33.212Z,3.67
2018-09-26T02:43:00.477Z,3.58
2018-09-26T02:45:27.749Z,3.37
2018-09-26T02:47:55.028Z,3.15
2018-09-26T02:50:22.311Z,3.45
2018-09-26T02:52:49.577Z,3.22
2018-09-26T02:55:16.844Z,3.42
2018-09-26T02:57:44.098Z,3.42
2018-09-26T03:00:11.380Z,4.05
2018-09-26T03:02:38.677Z,2.98
2018-09-26T03:05:06.017Z,3.47
2018-09-26T03:07:33.296Z,3.08
2018-09-26T03:10:00.597Z,4.10
2018-09-26T03:12:27.845Z,3.22
2018-09-26T03:14:55.113Z,3.35
2018-09-26T03:17:22.512Z,3.22
2018-09-26T03:19:49.804Z,3.42
2018-09-26T03:22:17.085Z,2.87
2018-09-26T03:24:44.365Z,3.80
2018-09-26T03:27:11.600Z,3.37
2018-09-26T03:29:38.844Z,3.50
2018-09-26T03:32:06.107Z,2.95
2018-09-26T03:34:33.377Z,3.10
2018-09-26T03:37:00.629Z,3.30
2018-09-26T03:39:27.873Z,3.20
2018-09-26T03:41:55.143Z,3.80
2018-09-26T03:44:22.402Z,4.30
2018-09-26T03:46:49.672Z,3.60
2018-09-26T03:49:16.924Z,3.50
2018-09-26T03:51:44.206Z,3.80
2018-09-26T03:54:11.504Z,3.35
2018-09-26T03:56:38.874Z,3.05
2018-09-26T03:59:06.209Z,3.60
2018-09-26T04:01:33.479Z,4.20
2018-09-26T04:04:00.870Z,3.35
2018-09-26T04:06:28.198Z,3.40
2018-09-26T04:08:55.509Z,3.30
2018-09-26T04:11:22.806Z,3.10
2018-09-26T04:13:50.102Z,3.40
2018-09-26T04:16:17.410Z,2.90
2018-09-26T04:18:44.713Z,3.55
2018-09-26T04:21:12.061Z,3.60
2018-09-26T04:23:39.337Z,3.75
2018-09-26T04:26:06.643Z,3.00
2018-09-26T04:28:33.914Z,3.87
2018-09-26T04:31:01.209Z,3.37
2018-09-26T04:33:28.571Z,3.15
2018-09-26T04:35:55.804Z,3.47
2018-09-26T04:38:23.114Z,3.33
2018-09-26T04:40:50.493Z,4.15
2018-09-26T04:43:17.850Z,4.15
2018-09-26T04:45:45.121Z,3.58
2018-09-26T04:48:12.428Z,3.87
2018-09-26T04:50:39.777Z,3.80
2018-09-26T04:53:07.069Z,4.08
2018-09-26T04:55:34.365Z,3.70
2018-09-26T04:58:01.757Z,7.45
2018-09-26T05:00:28.965Z,6.45
2018-09-26T05:02:56.238Z,9.60
2018-09-26T05:05:23.480Z,6.92
2018-09-26T05:07:50.973Z,9.30
2018-09-26T05:10:18.231Z,8.63
2018-09-26T05:12:45.509Z,7.20
2018-09-26T05:15:12.783Z,6.08
2018-09-26T05:17:40.045Z,5.70
2018-09-26T05:20:07.339Z,6.65
2018-09-26T05:22:34.627Z,6.05
2018-09-26T05:25:01.915Z,5.70
2018-09-26T05:27:29.192Z,4.53
2018-09-26T05:29:56.481Z,4.15
2018-09-26T05:32:23.757Z,4.20
2018-09-26T05:34:51.012Z,5.20
2018-09-26T05:37:18.393Z,4.45
2018-09-26T05:39:46.510Z,4.80
2018-09-26T05:42:13.804Z,4.37
2018-09-26T05:44:41.078Z,5.10
2018-09-26T05:47:08.717Z,5.12
2018-09-26T05:49:35.988Z,3.92
2018-09-26T05:52:03.558Z,4.33
2018-09-26T05:54:30.849Z,3.45
2018-09-26T05:56:58.126Z,4.30
2018-09-26T05:59:25.563Z,3.95
2018-09-26T06:01:52.804Z,3.95
2018-09-26T06:04:20.113Z,3.30
2018-09-26T06:06:47.365Z,3.70
2018-09-26T06:09:14.613Z,3.55
2018-09-26T06:11:42.328Z,3.83
2018-09-26T06:14:10.505Z,3.25
2018-09-26T06:16:37.808Z,3.55
2018-09-26T06:19:05.532Z,4.00
2018-09-26T06:21:32.861Z,3.33
2018-09-26T06:24:00.149Z,3.83
2018-09-26T06:26:27.434Z,3.12
2018-09-26T06:28:54.714Z,4.35
2018-09-26T06:31:21.996Z,3.75
2018-09-26T06:33:49.251Z,3.58
2018-09-26T06:36:16.517Z,4.12
2018-09-26T06:38:43.794Z,3.58
2018-09-26T06:41:11.129Z,4.72
2018-09-26T06:43:38.433Z,4.40
2018-09-26T06:46:05.870Z,4.80
2018-09-26T06:48:33.199Z,4.83
2018-09-26T06:51:00.537Z,5.30
2018-09-26T06:53:27.808Z,5.37
2018-09-26T06:55:55.197Z,4.47
2018-09-26T06:58:22.465Z,5.17
2018-09-26T07:00:49.734Z,4.40
2018-09-26T07:03:17.017Z,4.60
2018-09-26T07:05:44.309Z,5.55
2018-09-26T07:08:11.620Z,4.70
2018-09-26T07:10:38.896Z,5.12
2018-09-26T07:13:06.158Z,6.28
2018-09-26T07:15:33.425Z,5.15
2018-09-26T07:18:00.696Z,5.40
2018-09-26T07:20:27.963Z,4.75
2018-09-26T07:22:55.245Z,5.08
2018-09-26T07:25:22.498Z,4.25
2018-09-26T07:27:49.768Z,4.80
2018-09-26T07:30:17.084Z,5.00
2018-09-26T07:32:44.359Z,4.50
2018-09-26T07:35:11.621Z,4.67
2018-09-26T07:37:38.910Z,4.85
2018-09-26T07:40:06.224Z,5.55
2018-09-26T07:42:33.540Z,5.58
2018-09-26T07:45:00.797Z,5.40
2018-09-26T07:47:28.057Z,5.80
2018-09-26T07:49:55.333Z,4.97
2018-09-26T07:52:22.602Z,4.85
2018-09-26T07:54:49.908Z,5.47
2018-09-26T07:57:17.201Z,4.55
2018-09-26T07:59:44.490Z,5.15
2018-09-26T08:02:11.757Z,5.37
2018-09-26T08:04:39.033Z,5.00
2018-09-26T08:07:06.373Z,5.50
2018-09-26T08:09:33.641Z,5.67
2018-09-26T08:12:00.913Z,5.15
2018-09-26T08:14:28.200Z,4.70
2018-09-26T08:16:55.477Z,5.27
2018-09-26T08:19:22.766Z,4.70
2018-09-26T08:21:50.030Z,5.33
2018-09-26T08:24:17.380Z,4.63
2018-09-26T08:26:44.596Z,4.33
2018-09-26T08:29:11.852Z,4.57
2018-09-26T08:31:39.145Z,4.30
2018-09-26T08:34:06.449Z,3.80
2018-09-26T08:36:33.734Z,4.47
2018-09-26T08:39:00.992Z,4.40
2018-09-26T08:41:28.284Z,4.40
2018-09-26T08:43:55.583Z,3.97
2018-09-26T08:46:22.844Z,4.23
2018-09-26T08:48:50.105Z,4.50
2018-09-26T08:51:17.409Z,3.37
2018-09-26T08:53:44.738Z,3.73
2018-09-26T08:56:12.002Z,3.60
2018-09-26T08:58:39.274Z,3.37
2018-09-26T09:01:11.209Z,3.90
2018-09-26T09:03:38.483Z,5.00
2018-09-26T09:06:05.794Z,3.40
2018-09-26T09:08:33.038Z,3.53
2018-09-26T09:11:00.322Z,3.10
2018-09-26T09:13:27.586Z,3.37
2018-09-26T09:15:54.845Z,3.17
2018-09-26T09:18:22.105Z,2.73
2018-09-26T09:20:49.391Z,3.40
2018-09-26T09:23:16.669Z,3.57
2018-09-26T09:25:43.962Z,4.20
2018-09-26T09:28:11.269Z,3.70
2018-09-26T09:30:38.558Z,3.20
2018-09-26T09:33:05.868Z,3.40
2018-09-26T09:35:33.138Z,3.73
2018-09-26T09:38:00.425Z,2.93
2018-09-26T09:40:27.693Z,3.17
2018-09-26T09:42:54.961Z,3.17
2018-09-26T09:45:22.221Z,3.10
2018-09-26T09:47:49.491Z,3.27
2018-09-26T09:50:16.765Z,4.43
2018-09-26T09:52:44.035Z,4.20
2018-09-26T09:55:11.283Z,3.00
2018-09-26T09:57:38.541Z,3.97
2018-09-26T10:00:05.856Z,3.43
2018-09-26T10:02:33.176Z,3.40
2018-09-26T10:05:00.465Z,4.07
2018-09-26T10:07:27.898Z,3.80
2018-09-26T10:09:55.178Z,4.33
2018-09-26T10:12:22.489Z,3.57
2018-09-26T10:14:49.780Z,3.60
2018-09-26T10:17:17.085Z,3.60
2018-09-26T10:19:44.388Z,3.70
2018-09-26T10:22:11.685Z,3.70
2018-09-26T10:24:38.994Z,3.67
2018-09-26T10:27:06.288Z,3.00
2018-09-26T10:29:33.570Z,3.27
2018-09-26T10:32:00.881Z,2.90
2018-09-26T10:34:28.164Z,3.00
2018-09-26T10:36:55.445Z,3.00
2018-09-26T10:39:22.716Z,3.63
2018-09-26T10:41:49.973Z,3.80
2018-09-26T10:44:17.267Z,3.77
2018-09-26T10:46:44.578Z,3.77
2018-09-26T10:49:11.854Z,3.23
2018-09-26T10:51:39.109Z,4.30
2018-09-26T10:54:06.449Z,3.03
2018-09-26T10:56:33.875Z,3.73
2018-09-26T10:59:00.990Z,3.47
2018-09-26T11:01:28.404Z,3.50
2018-09-26T11:03:55.724Z,3.63
2018-09-26T11:06:23.028Z,3.47
2018-09-26T11:08:50.332Z,3.37
2018-09-26T11:11:17.620Z,4.30
2018-09-26T11:13:44.919Z,3.77
2018-09-26T11:16:12.273Z,4.20
2018-09-26T11:18:39.537Z,3.20
2018-09-26T11:21:06.884Z,3.33
2018-09-26T11:23:34.170Z,3.53
2018-09-26T11:26:01.527Z,3.60
2018-09-26T11:28:28.826Z,3.40
2018-09-26T11:30:56.120Z,3.47
2018-09-26T11:33:23.463Z,3.30
2018-09-26T11:35:50.701Z,3.93
2018-09-26T11:38:18.030Z,2.80
2018-09-26T11:40:45.296Z,3.30
2018-09-26T11:43:12.590Z,3.50
2018-09-26T11:45:39.890Z,3.03
2018-09-26T11:48:07.176Z,3.27
2018-09-26T11:50:34.490Z,3.47
2018-09-26T11:53:01.785Z,3.63
2018-09-26T11:55:29.176Z,3.23
2018-09-26T11:57:56.461Z,2.70
2018-09-26T12:00:23.744Z,2.80
2018-09-26T12:02:51.018Z,2.77
2018-09-26T12:05:18.286Z,2.80
2018-09-26T12:07:45.558Z,3.60
2018-09-26T12:10:12.879Z,3.80
2018-09-26T12:12:40.129Z,3.30
2018-09-26T12:15:07.411Z,3.00
2018-09-26T12:17:34.689Z,2.60
2018-09-26T12:20:01.990Z,2.80
2018-09-26T12:22:29.569Z,2.43
2018-09-26T12:24:56.808Z,3.00
2018-09-26T12:27:24.117Z,2.37
2018-09-26T12:29:51.418Z,2.67
2018-09-26T12:32:18.733Z,2.50
2018-09-26T12:34:46.077Z,2.57
2018-09-26T12:37:13.338Z,2.73
2018-09-26T12:39:40.605Z,2.37
2018-09-26T12:42:07.930Z,3.00
2018-09-26T12:44:35.321Z,2.40
2018-09-26T12:47:02.581Z,29.10
2018-09-26T12:49:29.930Z,38.43
2018-09-26T12:51:57.190Z,10.50
2018-09-26T12:54:24.459Z,4.67
2018-09-26T12:56:51.729Z,2.50
2018-09-26T12:59:19.037Z,3.13
2018-09-26T13:01:46.288Z,2.67
2018-09-26T13:04:13.636Z,2.50
2018-09-26T13:06:40.901Z,3.10
2018-09-26T13:09:08.220Z,2.77
2018-09-26T13:11:35.519Z,2.70
2018-09-26T13:14:02.860Z,3.80
2018-09-26T13:16:30.166Z,2.20
2018-09-26T13:18:57.534Z,2.20
2018-09-26T13:21:24.781Z,2.73
2018-09-26T13:23:52.082Z,4.07
2018-09-26T13:26:19.448Z,2.57
2018-09-26T13:28:46.701Z,2.90
2018-09-26T13:31:13.996Z,3.40
2018-09-26T13:33:41.281Z,2.53
2018-09-26T13:36:08.621Z,2.50
2018-09-26T13:38:35.881Z,2.60
2018-09-26T13:41:03.214Z,2.57
2018-09-26T13:43:30.620Z,2.70
2018-09-26T13:45:58.061Z,1.90
2018-09-26T13:48:25.301Z,3.20
2018-09-26T13:50:52.566Z,2.70
2018-09-26T13:53:19.929Z,2.43
2018-09-26T13:55:47.258Z,2.80
2018-09-26T13:58:14.607Z,3.37
2018-09-26T14:00:41.885Z,2.63
2018-09-26T14:03:09.233Z,2.23
2018-09-26T14:05:36.521Z,2.67
2018-09-26T14:08:03.860Z,2.40
2018-09-26T14:10:31.157Z,2.47
2018-09-26T14:12:58.451Z,2.50
2018-09-26T14:15:25.745Z,2.40
2018-09-26T14:17:53.048Z,3.63
2018-09-26T14:20:37.629Z,2.37
2018-09-26T14:23:05.157Z,2.63
2018-09-26T14:25:32.453Z,2.20
2018-09-26T14:27:59.824Z,2.17
2018-09-26T14:30:27.254Z,2.40
2018-09-26T14:32:54.555Z,2.20
2018-09-26T14:35:21.955Z,2.17
2018-09-26T14:37:49.297Z,2.00
2018-09-26T14:40:16.704Z,2.30
2018-09-26T14:42:44.069Z,2.93
2018-09-26T14:45:11.481Z,2.43
2018-09-26T14:47:38.818Z,2.10
2018-09-26T14:50:06.906Z,2.60
2018-09-26T14:52:34.318Z,2.10
2018-09-26T14:55:01.673Z,2.00
2018-09-26T14:57:29.035Z,2.10
2018-09-26T14:59:56.413Z,2.00
2018-09-26T15:02:23.835Z,2.20
2018-09-26T15:04:51.204Z,2.27
2018-09-26T15:07:18.565Z,1.80
2018-09-26T15:09:45.937Z,2.13
2018-09-26T15:12:13.409Z,2.30
2018-09-26T15:14:40.745Z,1.50
2018-09-26T15:17:08.109Z,3.33
2018-09-26T15:19:35.509Z,4.23
2018-09-26T15:22:02.893Z,3.70
2018-09-26T15:24:30.256Z,4.47
2018-09-26T15:26:57.620Z,3.10
2018-09-26T15:29:25.002Z,2.20
2018-09-26T15:31:52.357Z,2.37
2018-09-26T15:34:19.825Z,2.00
2018-09-26T15:36:47.185Z,1.80
2018-09-26T15:39:14.556Z,2.37
2018-09-26T15:41:41.981Z,3.80
2018-09-26T15:44:09.381Z,3.60
2018-09-26T15:46:36.866Z,6.70
2018-09-26T15:49:04.374Z,6.77
2018-09-26T15:51:31.841Z,4.20
2018-09-26T15:53:59.242Z,3.70
2018-09-26T15:56:26.604Z,3.93
2018-09-26T15:58:54.036Z,3.43
2018-09-26T16:01:21.404Z,2.57
2018-09-26T16:04:05.992Z,2.20
2018-09-26T16:06:33.282Z,2.43
2018-09-26T16:09:00.557Z,2.00
2018-09-26T16:11:27.848Z,2.37
2018-09-26T16:13:55.178Z,2.67
2018-09-26T16:16:22.499Z,2.00
2018-09-26T16:18:49.766Z,2.53
2018-09-26T16:21:17.092Z,1.83
2018-09-26T16:23:44.381Z,2.90
2018-09-26T16:26:11.735Z,2.37
2018-09-26T16:28:38.973Z,2.70
2018-09-26T16:31:06.425Z,2.47
2018-09-26T16:33:33.757Z,2.80
2018-09-26T16:36:01.055Z,3.00
2018-09-26T16:38:28.316Z,2.70
2018-09-26T16:40:55.608Z,2.10
2018-09-26T16:43:22.910Z,2.23
2018-09-26T16:45:50.961Z,2.23
2018-09-26T16:48:18.267Z,2.33
2018-09-26T16:50:45.522Z,1.87
2018-09-26T16:53:12.797Z,2.40
2018-09-26T16:55:40.105Z,2.50
2018-09-26T16:58:07.436Z,2.53
2018-09-26T17:00:34.695Z,2.33
2018-09-26T17:03:02.174Z,2.93
2018-09-26T17:05:29.471Z,3.17
2018-09-26T17:07:56.761Z,3.30
2018-09-26T17:10:24.125Z,3.20
2018-09-26T17:12:51.357Z,3.20
2018-09-26T17:15:18.642Z,2.80
2018-09-26T17:17:45.945Z,2.87
2018-09-26T17:20:13.267Z,3.43
2018-09-26T17:22:40.536Z,2.63
2018-09-26T17:25:08.317Z,2.47
2018-09-26T17:27:35.715Z,3.20
2018-09-26T17:30:03.068Z,2.90
2018-09-26T17:32:30.377Z,3.30
2018-09-26T17:34:57.658Z,4.40
2018-09-26T17:37:24.953Z,5.40
2018-09-26T17:39:52.238Z,4.70
2018-09-26T17:42:19.602Z,4.77
2018-09-26T17:44:46.834Z,7.90
2018-09-26T17:47:14.490Z,7.67
2018-09-26T17:49:41.769Z,8.57
2018-09-26T17:52:09.116Z,8.20
2018-09-26T17:54:36.378Z,9.43
2018-09-26T17:57:03.681Z,10.37
2018-09-26T17:59:30.992Z,7.60
2018-09-26T18:01:58.293Z,12.97
2018-09-26T18:04:25.624Z,6.20
2018-09-26T18:06:52.837Z,5.87
2018-09-26T18:09:20.097Z,12.70
2018-09-26T18:11:47.357Z,8.33
2018-09-26T18:14:14.609Z,7.50
2018-09-26T18:16:41.866Z,7.57
2018-09-26T18:19:09.377Z,9.53
2018-09-26T18:21:37.157Z,7.37
2018-09-26T18:24:04.429Z,7.70
2018-09-26T18:26:31.798Z,11.67
2018-09-26T18:28:59.213Z,10.07
2018-09-26T18:31:26.466Z,7.73
2018-09-26T18:33:53.700Z,6.60
2018-09-26T18:36:20.964Z,21.30
2018-09-26T18:38:48.331Z,19.00
2018-09-26T18:41:15.517Z,7.73
2018-09-26T18:43:42.777Z,4.50
2018-09-26T18:46:10.049Z,7.30
2018-09-26T18:48:37.337Z,19.53
2018-09-26T18:51:05.046Z,16.23
2018-09-26T18:53:32.533Z,18.40
2018-09-26T18:55:59.890Z,17.17
2018-09-26T18:58:27.160Z,12.90
2018-09-26T19:00:54.413Z,10.60
2018-09-26T19:03:21.666Z,9.10
2018-09-26T19:05:49.105Z,12.30
2018-09-26T19:08:16.756Z,6.67
2018-09-26T19:10:44.022Z,5.87
2018-09-26T19:13:11.299Z,6.47
2018-09-26T19:15:38.560Z,7.17
2018-09-26T19:18:05.800Z,7.33
2018-09-26T19:20:33.073Z,9.90
2018-09-26T19:23:00.348Z,9.30
2018-09-26T19:25:27.609Z,7.60
2018-09-26T19:27:54.895Z,6.87
2018-09-26T19:30:22.389Z,8.60
2018-09-26T19:32:49.879Z,8.27
2018-09-26T19:35:17.165Z,7.70
2018-09-26T19:37:44.465Z,8.47
2018-09-26T19:40:11.937Z,8.77
2018-09-26T19:42:39.193Z,7.37
2018-09-26T19:45:06.511Z,7.63
2018-09-26T19:47:33.850Z,6.23
2018-09-26T19:50:01.144Z,6.20
2018-09-26T19:52:28.416Z,6.00
2018-09-26T19:54:55.741Z,7.10
2018-09-26T19:57:23.077Z,7.70
2018-09-26T19:59:50.366Z,8.07
2018-09-26T20:02:17.616Z,7.87
2018-09-26T20:04:44.906Z,7.70
2018-09-26T20:07:12.196Z,6.97
2018-09-26T20:09:39.474Z,7.57
2018-09-26T20:12:06.791Z,7.57
2018-09-26T20:14:34.082Z,8.27
2018-09-26T20:17:01.382Z,7.43
2018-09-26T20:19:28.710Z,7.17
2018-09-26T20:21:56.085Z,6.33
2018-09-26T20:24:23.362Z,7.53
2018-09-26T20:26:50.779Z,7.40
2018-09-26T20:29:18.023Z,7.17
2018-09-26T20:31:45.340Z,8.10
2018-09-26T20:34:12.593Z,6.20
2018-09-26T20:36:39.972Z,6.50
2018-09-26T20:39:08.370Z,7.83
2018-09-26T20:41:35.670Z,6.37
2018-09-26T20:44:03.120Z,6.40
2018-09-26T20:46:30.557Z,6.17
2018-09-26T20:48:57.920Z,9.17
2018-09-26T20:51:25.217Z,7.87
2018-09-26T20:53:52.545Z,10.20
2018-09-26T20:56:19.944Z,7.37
2018-09-26T20:58:47.281Z,6.60
2018-09-26T21:01:14.578Z,7.83
2018-09-26T21:03:41.845Z,10.43
2018-09-26T21:06:09.224Z,9.67
2018-09-26T21:08:36.521Z,9.00
2018-09-26T21:11:03.855Z,9.67
2018-09-26T21:13:31.138Z,8.30
2018-09-26T21:15:58.441Z,6.90
2018-09-26T21:18:25.781Z,6.97
2018-09-26T21:20:53.108Z,6.23
2018-09-26T21:23:20.394Z,4.53
2018-09-26T21:25:47.680Z,4.83
2018-09-26T21:28:14.971Z,8.27
2018-09-26T21:30:42.372Z,8.83
2018-09-26T21:33:09.938Z,8.23
2018-09-26T21:35:37.510Z,8.07
2018-09-26T21:38:04.793Z,6.60
2018-09-26T21:40:32.093Z,6.20
2018-09-26T21:42:59.391Z,6.03
2018-09-26T21:45:26.699Z,6.00
2018-09-26T21:47:53.987Z,5.77
2018-09-26T21:50:21.287Z,5.27
2018-09-26T21:52:48.781Z,6.80
2018-09-26T21:55:16.089Z,4.70
2018-09-26T21:57:43.398Z,4.87
2018-09-26T22:00:10.744Z,6.37
2018-09-26T22:02:38.033Z,6.50
2018-09-26T22:05:05.422Z,5.97
2018-09-26T22:07:32.737Z,6.47
2018-09-26T22:10:00.014Z,7.00
2018-09-26T22:12:27.344Z,5.40
2018-09-26T22:14:54.637Z,4.93
2018-09-26T22:17:21.926Z,6.80
2018-09-26T22:19:49.205Z,4.27
2018-09-26T22:22:16.530Z,4.27
2018-09-26T22:24:43.815Z,4.10
2018-09-26T22:27:11.147Z,3.63
2018-09-26T22:29:38.441Z,3.70
2018-09-26T22:32:05.858Z,4.53
2018-09-26T22:34:33.152Z,4.00
2018-09-26T22:37:00.453Z,3.90
2018-09-26T22:39:27.750Z,3.50
2018-09-26T22:41:55.028Z,3.80
2018-09-26T22:44:22.309Z,3.20
2018-09-26T22:46:49.605Z,3.60
2018-09-26T22:49:16.897Z,4.17
2018-09-26T22:51:44.197Z,4.17
2018-09-26T22:54:11.500Z,4.23
2018-09-26T22:56:39.977Z,3.60
2018-09-26T22:59:07.279Z,4.50
2018-09-26T23:01:34.602Z,3.93
2018-09-26T23:04:01.875Z,3.80
2018-09-26T23:06:29.144Z,3.20
2018-09-26T23:08:56.422Z,3.83
2018-09-26T23:11:23.685Z,5.93
2018-09-26T23:13:50.973Z,4.67
2018-09-26T23:16:18.349Z,4.53
2018-09-26T23:18:45.626Z,3.70
2018-09-26T23:21:12.908Z,4.20
2018-09-26T23:23:40.219Z,4.50
2018-09-26T23:26:08.313Z,23.60
2018-09-26T23:28:35.573Z,28.90
2018-09-26T23:31:02.910Z,23.50
2018-09-26T23:33:30.169Z,17.10
2018-09-26T23:35:57.490Z,12.30
2018-09-26T23:38:24.758Z,8.50
2018-09-26T23:40:52.037Z,7.07
2018-09-26T23:43:19.297Z,4.40
2018-09-26T23:45:46.577Z,4.70
2018-09-26T23:48:13.857Z,4.50
2018-09-26T23:50:41.141Z,4.37
2018-09-26T23:53:08.417Z,4.37
2018-09-26T23:55:35.726Z,4.40
2018-09-26T23:58:03.025Z,4.90
